createdAt,value
2023-01-03T00:02:14.819Z,1.10
2023-01-03T00:04:49.669Z,1.00
2023-01-03T00:07:34.370Z,1.23
2023-01-03T00:10:05.330Z,1.00
2023-01-03T00:12:34.709Z,1.10
2023-01-03T00:15:06.004Z,0.90
2023-01-03T00:17:37.368Z,1.20
2023-01-03T00:20:09.033Z,1.00
2023-01-03T00:22:37.882Z,1.23
2023-01-03T00:25:07.600Z,1.23
2023-01-03T00:27:36.376Z,1.27
2023-01-03T00:30:18.178Z,1.30
2023-01-03T00:32:47.003Z,1.20
2023-01-03T00:35:16.142Z,1.10
2023-01-03T00:37:44.779Z,1.13
2023-01-03T00:40:14.055Z,1.00
2023-01-03T00:43:00.124Z,1.00
2023-01-03T00:45:35.086Z,1.00
2023-01-03T00:48:04.147Z,0.90
2023-01-03T00:50:35.493Z,1.10
2023-01-03T00:53:06.106Z,0.90
2023-01-03T00:55:37.178Z,0.97
2023-01-03T00:58:05.933Z,1.10
2023-01-03T01:00:35.952Z,1.10
2023-01-03T01:03:04.835Z,0.90
2023-01-03T01:05:35.953Z,1.00
2023-01-03T01:08:04.668Z,0.97
2023-01-03T01:10:32.804Z,1.27
2023-01-03T01:13:04.291Z,1.13
2023-01-03T01:15:32.753Z,1.00
2023-01-03T01:18:02.834Z,1.00
2023-01-03T01:20:32.581Z,1.20
2023-01-03T01:23:05.991Z,1.10
2023-01-03T01:25:36.026Z,1.00
2023-01-03T01:28:04.791Z,1.27
2023-01-03T01:30:35.096Z,1.30
2023-01-03T01:33:06.209Z,1.20
2023-01-03T01:35:38.345Z,1.17
2023-01-03T01:38:07.787Z,1.03
2023-01-03T01:40:36.452Z,1.17
2023-01-03T01:43:34.859Z,1.10
2023-01-03T01:46:12.217Z,1.13
2023-01-03T01:48:42.566Z,0.93
2023-01-03T01:51:13.040Z,1.03
2023-01-03T01:53:46.936Z,1.13
2023-01-03T01:56:20.913Z,1.30
2023-01-03T01:58:54.144Z,0.90
2023-01-03T02:01:25.026Z,1.17
2023-01-03T02:04:02.092Z,1.10
2023-01-03T02:06:33.547Z,1.07
2023-01-03T02:09:03.606Z,0.90
2023-01-03T02:11:43.963Z,1.03
2023-01-03T02:14:28.784Z,1.17
2023-01-03T02:17:07.792Z,1.33
2023-01-03T02:19:59.810Z,1.10
2023-01-03T02:22:55.925Z,1.00
2023-01-03T02:26:08.443Z,1.03
2023-01-03T02:29:09.721Z,1.03
2023-01-03T02:31:48.493Z,1.17
2023-01-03T02:34:25.283Z,0.90
2023-01-03T02:37:05.285Z,1.17
2023-01-03T02:39:41.209Z,1.13
2023-01-03T02:42:33.278Z,1.10
2023-01-03T02:45:11.164Z,1.20
2023-01-03T02:47:47.664Z,1.30
2023-01-03T02:50:18.652Z,1.10
2023-01-03T02:52:50.433Z,1.20
2023-01-03T02:55:24.345Z,1.20
2023-01-03T02:57:56.534Z,1.40
2023-01-03T03:00:29.785Z,1.20
2023-01-03T03:03:06.667Z,1.10
2023-01-03T03:05:57.410Z,1.30
2023-01-03T03:08:26.355Z,1.10
2023-01-03T03:11:13.356Z,1.10
2023-01-03T03:13:47.899Z,1.13
2023-01-03T03:16:41.965Z,1.30
2023-01-03T03:19:36.141Z,1.10
2023-01-03T03:22:26.518Z,1.30
2023-01-03T03:25:03.791Z,0.90
2023-01-03T03:27:53.577Z,1.20
2023-01-03T03:30:25.398Z,1.00
2023-01-03T03:33:00.755Z,1.20
2023-01-03T03:35:48.786Z,1.40
2023-01-03T03:38:24.714Z,1.30
2023-01-03T03:41:18.259Z,1.30
2023-01-03T03:44:13.819Z,1.20
2023-01-03T03:46:54.396Z,1.23
2023-01-03T03:49:41.899Z,1.17
2023-01-03T03:52:17.660Z,1.10
2023-01-03T03:54:50.155Z,1.23
2023-01-03T03:57:24.553Z,1.67
2023-01-03T04:00:01.888Z,1.60
2023-01-03T04:02:32.766Z,1.30
2023-01-03T04:05:08.095Z,1.40
2023-01-03T04:07:40.311Z,1.57
2023-01-03T04:10:11.398Z,1.40
2023-01-03T04:12:45.041Z,2.30
2023-01-03T04:15:15.116Z,1.80
2023-01-03T04:17:43.940Z,2.20
2023-01-03T04:20:14.083Z,2.40
2023-01-03T04:22:46.803Z,2.37
2023-01-03T04:25:15.426Z,2.47
2023-01-03T04:27:43.952Z,2.07
2023-01-03T04:30:16.279Z,2.97
2023-01-03T04:32:44.777Z,3.77
2023-01-03T04:35:13.257Z,3.37
2023-01-03T04:37:41.673Z,2.70
2023-01-03T04:40:14.699Z,2.77
2023-01-03T04:43:00.429Z,2.77
2023-01-03T04:45:28.927Z,3.10
2023-01-03T04:47:57.955Z,3.40
2023-01-03T04:50:27.651Z,3.30
2023-01-03T04:52:56.565Z,3.07
2023-01-03T04:55:29.825Z,2.77
2023-01-03T04:57:58.380Z,2.47
2023-01-03T05:00:29.319Z,2.77
2023-01-03T05:02:57.737Z,2.40
2023-01-03T05:05:26.081Z,2.70
2023-01-03T05:07:55.036Z,2.27
2023-01-03T05:10:23.501Z,2.33
2023-01-03T05:13:03.478Z,2.10
2023-01-03T05:15:33.906Z,2.20
2023-01-03T05:18:04.498Z,2.53
2023-01-03T05:20:49.879Z,2.53
2023-01-03T05:23:37.011Z,2.60
2023-01-03T05:26:09.332Z,2.47
2023-01-03T05:28:39.991Z,2.97
2023-01-03T05:31:08.936Z,2.87
2023-01-03T05:33:39.645Z,2.57
2023-01-03T05:36:09.357Z,2.83
2023-01-03T05:38:41.048Z,3.10
2023-01-03T05:41:09.457Z,2.80
2023-01-03T05:43:39.274Z,2.80
2023-01-03T05:46:08.306Z,2.70
2023-01-03T05:48:37.369Z,2.93
2023-01-03T05:51:06.173Z,2.47
2023-01-03T05:53:35.054Z,2.60
2023-01-03T05:56:06.467Z,2.60
2023-01-03T05:58:37.397Z,2.50
2023-01-03T06:01:14.949Z,2.13
2023-01-03T06:03:46.424Z,2.80
2023-01-03T06:06:17.263Z,3.20
2023-01-03T06:08:46.954Z,1.90
2023-01-03T06:11:19.816Z,1.60
2023-01-03T06:13:48.894Z,1.90
2023-01-03T06:16:37.873Z,2.00
2023-01-03T06:19:07.613Z,2.00
2023-01-03T06:21:36.696Z,2.17
2023-01-03T06:24:05.986Z,1.93
2023-01-03T06:26:36.978Z,2.00
2023-01-03T06:29:05.700Z,2.23
2023-01-03T06:31:35.972Z,2.20
2023-01-03T06:34:05.515Z,2.43
2023-01-03T06:36:34.889Z,2.20
2023-01-03T06:39:03.863Z,2.30
2023-01-03T06:41:32.374Z,2.50
2023-01-03T06:44:00.848Z,2.60
2023-01-03T06:46:49.089Z,2.50
2023-01-03T06:49:36.962Z,2.50
2023-01-03T06:52:23.337Z,2.57
2023-01-03T06:54:54.811Z,4.87
2023-01-03T06:57:25.861Z,5.03
2023-01-03T06:59:55.631Z,2.80
2023-01-03T07:02:24.489Z,2.93
2023-01-03T07:04:54.829Z,14.27
2023-01-03T07:07:23.670Z,20.20
2023-01-03T07:09:51.832Z,16.13
2023-01-03T07:12:39.040Z,5.37
2023-01-03T07:15:08.378Z,7.00
2023-01-03T07:17:39.298Z,8.90
2023-01-03T07:20:11.037Z,9.20
2023-01-03T07:22:39.663Z,4.27
2023-01-03T07:25:08.532Z,2.30
2023-01-03T07:27:37.216Z,2.60
2023-01-03T07:30:06.109Z,2.20
2023-01-03T07:32:34.699Z,2.50
2023-01-03T07:35:04.058Z,2.50
2023-01-03T07:37:34.458Z,3.23
2023-01-03T07:40:02.832Z,2.80
2023-01-03T07:42:48.659Z,2.80
2023-01-03T07:45:17.130Z,2.10
2023-01-03T07:47:47.283Z,2.07
2023-01-03T07:50:16.540Z,2.37
2023-01-03T07:52:47.120Z,2.40
2023-01-03T07:55:16.468Z,2.70
2023-01-03T07:57:45.147Z,3.20
2023-01-03T08:00:14.341Z,4.63
2023-01-03T08:02:42.893Z,5.70
2023-01-03T08:05:11.729Z,5.50
2023-01-03T08:07:40.035Z,5.43
2023-01-03T08:10:28.629Z,6.43
2023-01-03T08:13:13.938Z,5.63
2023-01-03T08:15:45.027Z,6.40
2023-01-03T08:18:15.645Z,6.23
2023-01-03T08:20:47.441Z,6.50
2023-01-03T08:23:16.696Z,6.73
2023-01-03T08:25:46.911Z,7.43
2023-01-03T08:28:16.401Z,6.73
2023-01-03T08:30:47.402Z,7.40
2023-01-03T08:33:18.912Z,6.93
2023-01-03T08:35:51.214Z,7.77
2023-01-03T08:38:24.786Z,7.83
2023-01-03T08:41:01.232Z,7.87
2023-01-03T08:43:31.347Z,8.10
2023-01-03T08:46:02.698Z,8.70
2023-01-03T08:48:33.335Z,8.70
2023-01-03T08:51:03.309Z,8.93
2023-01-03T08:53:31.677Z,10.30
2023-01-03T08:56:02.790Z,12.63
2023-01-03T08:58:32.052Z,12.67
2023-01-03T09:01:03.953Z,13.07
2023-01-03T09:03:32.504Z,14.97
2023-01-03T09:06:03.020Z,13.27
2023-01-03T09:08:33.816Z,13.17
2023-01-03T09:11:13.137Z,15.63
2023-01-03T09:13:46.526Z,15.50
2023-01-03T09:16:17.298Z,14.87
2023-01-03T09:18:45.567Z,13.73
2023-01-03T09:21:16.875Z,14.67
2023-01-03T09:23:46.962Z,15.20
2023-01-03T09:26:17.067Z,11.93
2023-01-03T09:28:45.772Z,11.73
2023-01-03T09:31:14.170Z,10.50
2023-01-03T09:33:42.467Z,10.80
2023-01-03T09:36:13.898Z,11.10
2023-01-03T09:38:42.642Z,12.20
2023-01-03T09:41:19.142Z,10.57
2023-01-03T09:43:52.939Z,9.97
2023-01-03T09:46:23.397Z,11.20
2023-01-03T09:48:55.527Z,10.63
2023-01-03T09:51:53.343Z,11.27
2023-01-03T09:54:46.282Z,10.10
2023-01-03T09:57:35.616Z,10.03
2023-01-03T10:00:31.566Z,10.50
2023-01-03T10:03:35.164Z,10.43
2023-01-03T10:06:14.497Z,10.73
2023-01-03T10:08:56.875Z,11.43
2023-01-03T10:11:37.544Z,10.70
2023-01-03T10:14:18.835Z,11.13
2023-01-03T10:16:57.539Z,11.70
2023-01-03T10:19:47.774Z,11.57
2023-01-03T10:22:20.581Z,12.00
2023-01-03T10:24:57.322Z,11.87
2023-01-03T10:27:28.913Z,11.77
2023-01-03T10:30:03.599Z,12.33
2023-01-03T10:32:52.803Z,12.33
2023-01-03T10:35:24.175Z,11.97
2023-01-03T10:37:54.148Z,12.13
2023-01-03T10:40:36.513Z,11.80
2023-01-03T10:43:17.569Z,12.80
2023-01-03T10:45:54.656Z,12.10
2023-01-03T10:48:25.614Z,12.67
2023-01-03T10:50:55.205Z,12.53
2023-01-03T10:53:26.877Z,12.47
2023-01-03T10:56:04.505Z,13.13
2023-01-03T10:58:37.465Z,13.37
2023-01-03T11:01:20.383Z,10.60
2023-01-03T11:07:02.580Z,10.57
2023-01-03T11:09:38.561Z,11.50
2023-01-03T11:12:16.757Z,11.30
2023-01-03T11:14:52.070Z,11.30
2023-01-03T11:17:24.577Z,10.57
2023-01-03T11:19:54.221Z,10.70
2023-01-03T11:22:37.660Z,10.43
2023-01-03T11:25:21.284Z,11.23
2023-01-03T11:28:33.264Z,11.40
2023-01-03T11:31:07.289Z,12.67
2023-01-03T11:33:52.141Z,12.70
2023-01-03T11:36:37.243Z,11.37
2023-01-03T11:39:26.663Z,11.30
2023-01-03T11:42:33.348Z,11.27
2023-01-03T11:45:36.435Z,11.73
2023-01-03T11:48:24.102Z,10.37
2023-01-03T11:50:56.710Z,11.20
2023-01-03T11:53:36.469Z,12.63
2023-01-03T11:56:30.620Z,12.87
2023-01-03T11:59:15.747Z,13.60
2023-01-03T12:02:05.265Z,12.90
2023-01-03T12:04:44.036Z,13.97
2023-01-03T12:10:14.765Z,14.87
2023-01-03T12:13:02.115Z,16.77
2023-01-03T12:15:41.069Z,17.10
2023-01-03T12:18:23.996Z,18.13
2023-01-03T12:21:01.447Z,19.67
2023-01-03T12:23:36.920Z,18.53
2023-01-03T12:26:09.840Z,19.07
2023-01-03T12:28:43.798Z,18.33
2023-01-03T12:31:27.915Z,18.03
2023-01-03T12:34:09.446Z,17.83
2023-01-03T12:36:44.577Z,19.13
2023-01-03T12:39:38.231Z,19.93
2023-01-03T12:42:15.745Z,18.93
2023-01-03T12:44:48.772Z,17.83
2023-01-03T12:47:29.395Z,18.50
2023-01-03T12:50:05.508Z,18.07
2023-01-03T12:52:37.517Z,17.87
2023-01-03T12:55:20.027Z,19.20
2023-01-03T12:58:01.026Z,18.10
2023-01-03T13:00:49.413Z,18.23
2023-01-03T13:03:23.200Z,16.37
2023-01-03T13:05:58.901Z,14.90
2023-01-03T13:08:40.118Z,13.40
2023-01-03T13:11:20.453Z,12.40
2023-01-03T13:13:56.017Z,12.13
2023-01-03T13:16:59.174Z,10.53
2023-01-03T13:20:00.765Z,9.90
2023-01-03T13:22:59.825Z,9.33
2023-01-03T13:25:45.688Z,8.40
2023-01-03T13:28:34.759Z,8.77
2023-01-03T13:31:45.834Z,7.80
2023-01-03T13:34:34.105Z,7.27
2023-01-03T13:37:22.663Z,7.40
2023-01-03T13:40:12.350Z,7.23
2023-01-03T13:42:41.964Z,6.90
2023-01-03T13:45:50.212Z,7.03
2023-01-03T13:48:22.989Z,7.10
2023-01-03T13:51:41.614Z,7.23
2023-01-03T13:54:36.529Z,6.50
2023-01-03T13:57:08.298Z,7.90
2023-01-03T13:59:43.344Z,7.70
2023-01-03T14:02:42.172Z,7.07
2023-01-03T14:05:56.748Z,6.57
2023-01-03T14:08:44.682Z,6.57
2023-01-03T14:11:47.001Z,6.60
2023-01-03T14:14:18.422Z,5.83
2023-01-03T14:16:53.331Z,5.80
2023-01-03T14:19:26.166Z,5.33
2023-01-03T14:22:21.003Z,5.43
2023-01-03T14:24:51.914Z,5.87
2023-01-03T14:27:25.656Z,5.20
2023-01-03T14:29:56.953Z,5.40
2023-01-03T14:32:34.136Z,5.43
2023-01-03T14:35:05.228Z,5.53
2023-01-03T14:37:35.216Z,5.50
2023-01-03T14:40:07.421Z,5.57
2023-01-03T14:42:37.371Z,6.13
2023-01-03T14:45:10.724Z,5.27
2023-01-03T14:47:42.178Z,4.87
2023-01-03T14:50:17.160Z,5.67
2023-01-03T14:52:49.810Z,5.60
2023-01-03T14:55:26.570Z,6.30
2023-01-03T14:57:58.550Z,6.70
2023-01-03T15:00:33.411Z,5.30
2023-01-03T15:03:04.256Z,5.10
2023-01-03T15:05:35.568Z,5.40
2023-01-03T15:08:22.055Z,6.27
2023-01-03T15:10:54.579Z,6.03
2023-01-03T15:13:28.488Z,6.77
2023-01-03T15:16:00.324Z,6.17
2023-01-03T15:18:33.536Z,6.73
2023-01-03T15:21:03.548Z,7.47
2023-01-03T15:23:39.231Z,6.83
2023-01-03T15:26:12.210Z,6.63
2023-01-03T15:28:52.134Z,6.77
2023-01-03T15:31:32.013Z,6.93
2023-01-03T15:34:02.302Z,6.60
2023-01-03T15:36:34.353Z,6.93
2023-01-03T15:39:02.895Z,7.50
2023-01-03T15:42:12.698Z,5.90
2023-01-03T15:44:47.362Z,6.53
2023-01-03T15:47:25.157Z,6.10
2023-01-03T15:50:00.482Z,8.23
2023-01-03T15:52:39.289Z,7.30
2023-01-03T15:55:22.899Z,6.60
2023-01-03T15:57:54.608Z,7.07
2023-01-03T16:00:28.484Z,7.70
2023-01-03T16:02:59.505Z,7.30
2023-01-03T16:05:28.007Z,7.00
2023-01-03T16:07:56.932Z,7.17
2023-01-03T16:10:25.769Z,7.87
2023-01-03T16:12:55.083Z,7.90
2023-01-03T16:15:26.529Z,7.27
2023-01-03T16:17:55.134Z,7.83
2023-01-03T16:20:23.521Z,8.33
2023-01-03T16:23:01.020Z,9.17
2023-01-03T16:25:30.851Z,8.33
2023-01-03T16:27:59.032Z,9.20
2023-01-03T16:30:29.324Z,9.13
2023-01-03T16:32:57.788Z,7.67
2023-01-03T16:38:48.579Z,8.57
2023-01-03T16:41:21.990Z,8.47
2023-01-03T16:43:53.059Z,7.63
2023-01-03T16:46:24.938Z,8.17
2023-01-03T16:48:59.229Z,8.00
2023-01-03T16:51:29.588Z,8.00
2023-01-03T16:54:00.525Z,7.27
2023-01-03T16:56:31.021Z,7.37
2023-01-03T16:59:17.269Z,6.90
2023-01-03T17:01:51.667Z,7.40
2023-01-03T17:04:23.299Z,7.47
2023-01-03T17:06:52.015Z,7.67
2023-01-03T17:09:40.527Z,7.70
2023-01-03T17:12:15.846Z,7.27
2023-01-03T17:14:44.903Z,8.47
2023-01-03T17:17:19.875Z,7.13
2023-01-03T17:20:06.045Z,7.27
2023-01-03T17:22:35.052Z,7.00
2023-01-03T17:25:03.784Z,7.57
2023-01-03T17:27:33.651Z,7.97
2023-01-03T17:30:08.664Z,8.10
2023-01-03T17:32:42.072Z,9.47
2023-01-03T17:35:13.956Z,10.93
2023-01-03T17:38:14.267Z,7.80
2023-01-03T17:40:33.992Z,7.80
2023-01-03T17:43:04.993Z,7.83
2023-01-03T17:45:50.274Z,7.80
2023-01-03T17:48:38.735Z,7.97
2023-01-03T17:51:07.342Z,8.23
2023-01-03T17:53:37.398Z,8.60
2023-01-03T17:56:09.044Z,8.10
2023-01-03T17:58:39.765Z,7.97
2023-01-03T18:01:09.726Z,8.23
2023-01-03T18:03:40.389Z,8.57
2023-01-03T18:06:13.859Z,9.70
2023-01-03T18:08:45.086Z,11.43
2023-01-03T18:11:17.955Z,9.53
2023-01-03T18:13:48.393Z,9.07
2023-01-03T18:16:19.766Z,9.93
2023-01-03T18:18:51.337Z,8.53
2023-01-03T18:21:28.197Z,9.30
2023-01-03T18:24:01.526Z,9.47
2023-01-03T18:26:34.690Z,9.07
2023-01-03T18:29:05.087Z,8.47
2023-01-03T18:31:36.167Z,8.27
2023-01-03T18:34:06.323Z,7.93
2023-01-03T18:36:43.352Z,7.97
2023-01-03T18:39:16.270Z,10.97
2023-01-03T18:41:51.380Z,9.53
2023-01-03T18:44:30.942Z,10.30
2023-01-03T18:47:04.314Z,10.13
2023-01-03T18:49:40.979Z,9.10
2023-01-03T18:52:30.986Z,9.20
2023-01-03T18:55:03.273Z,10.27
2023-01-03T18:57:34.455Z,11.03
2023-01-03T19:00:08.201Z,9.87
2023-01-03T19:02:38.252Z,9.10
2023-01-03T19:05:15.375Z,10.53
2023-01-03T19:07:47.868Z,9.73
2023-01-03T19:10:22.061Z,9.93
2023-01-03T19:12:53.819Z,17.83
2023-01-03T19:15:26.596Z,12.07
2023-01-03T19:17:54.976Z,10.67
2023-01-03T19:20:27.167Z,10.43
2023-01-03T19:22:57.029Z,9.27
2023-01-03T19:25:45.913Z,9.17
2023-01-03T19:28:22.360Z,8.87
2023-01-03T19:31:02.275Z,8.60
2023-01-03T19:33:33.097Z,8.23
2023-01-03T19:36:11.742Z,8.57
2023-01-03T19:38:45.565Z,8.50
2023-01-03T19:41:18.286Z,8.93
2023-01-03T19:43:46.572Z,9.07
2023-01-03T19:46:18.321Z,8.87
2023-01-03T19:48:50.301Z,8.63
2023-01-03T19:51:23.566Z,8.33
2023-01-03T19:53:53.757Z,8.90
2023-01-03T19:56:24.432Z,8.50
2023-01-03T19:58:55.451Z,9.17
2023-01-03T20:02:05.964Z,9.07
2023-01-03T20:04:27.403Z,10.20
2023-01-03T20:06:57.989Z,10.60
2023-01-03T20:09:28.622Z,9.20
2023-01-03T20:11:59.684Z,9.33
2023-01-03T20:14:31.522Z,10.17
2023-01-03T20:17:02.865Z,10.70
2023-01-03T20:19:32.588Z,10.70
2023-01-03T20:22:07.235Z,10.83
2023-01-03T20:24:40.435Z,11.40
2023-01-03T20:27:14.828Z,10.57
2023-01-03T20:29:45.650Z,11.27
2023-01-03T20:32:14.909Z,11.20
2023-01-03T20:34:45.086Z,8.97
2023-01-03T20:37:23.383Z,8.80
2023-01-03T20:39:59.108Z,8.77
2023-01-03T20:42:28.257Z,8.93
2023-01-03T20:44:58.663Z,8.83
2023-01-03T20:47:27.150Z,9.30
2023-01-03T20:49:58.541Z,9.73
2023-01-03T20:52:28.894Z,9.40
2023-01-03T20:54:57.255Z,10.63
2023-01-03T20:57:28.950Z,9.53
2023-01-03T20:59:59.973Z,9.73
2023-01-03T21:02:31.803Z,9.27
2023-01-03T21:05:03.704Z,9.23
2023-01-03T21:07:48.563Z,9.87
2023-01-03T21:10:41.370Z,10.03
2023-01-03T21:13:13.670Z,10.17
2023-01-03T21:15:43.993Z,10.37
2023-01-03T21:18:18.077Z,10.37
2023-01-03T21:20:49.685Z,10.67
2023-01-03T21:23:21.684Z,10.57
2023-01-03T21:25:50.798Z,11.73
2023-01-03T21:28:19.428Z,11.67
2023-01-03T21:30:49.154Z,11.93
2023-01-03T21:33:19.601Z,10.83
2023-01-03T21:35:54.608Z,10.07
2023-01-03T21:38:25.324Z,10.30
2023-01-03T21:40:56.251Z,10.63
2023-01-03T21:43:27.222Z,10.63
2023-01-03T21:46:05.366Z,11.37
2023-01-03T21:48:36.379Z,11.63
2023-01-03T21:51:06.301Z,10.93
2023-01-03T21:53:51.521Z,10.17
2023-01-03T21:56:22.935Z,11.00
2023-01-03T21:58:52.909Z,11.07
2023-01-03T22:01:26.481Z,11.53
2023-01-03T22:04:18.607Z,11.37
2023-01-03T22:06:51.517Z,10.67
2023-01-03T22:09:42.571Z,11.83
2023-01-03T22:12:15.308Z,12.30
2023-01-03T22:14:48.869Z,11.93
2023-01-03T22:17:17.759Z,11.30
2023-01-03T22:19:47.999Z,11.27
2023-01-03T22:22:20.369Z,12.70
2023-01-03T22:24:50.803Z,12.00
2023-01-03T22:27:22.959Z,12.23
2023-01-03T22:29:51.907Z,12.87
2023-01-03T22:32:24.807Z,12.40
2023-01-03T22:34:57.808Z,12.50
2023-01-03T22:37:29.962Z,11.13
2023-01-03T22:40:05.324Z,12.27
2023-01-03T22:42:37.076Z,11.90
2023-01-03T22:45:08.598Z,11.67
2023-01-03T22:47:42.835Z,12.20
2023-01-03T22:50:17.553Z,11.77
2023-01-03T22:52:50.991Z,12.63
2023-01-03T22:55:33.838Z,12.77
2023-01-03T22:58:03.403Z,11.70
2023-01-03T23:00:32.101Z,11.33
2023-01-03T23:03:02.829Z,12.00
2023-01-03T23:05:31.240Z,11.93
2023-01-03T23:08:00.121Z,11.97
2023-01-03T23:10:30.232Z,12.57
2023-01-03T23:13:01.029Z,11.07
2023-01-03T23:15:31.722Z,12.07
2023-01-03T23:18:02.251Z,11.93
2023-01-03T23:20:34.837Z,11.80
2023-01-03T23:23:08.766Z,11.10
2023-01-03T23:25:42.143Z,11.27
2023-01-03T23:28:10.645Z,11.50
2023-01-03T23:30:42.015Z,11.77
2023-01-03T23:33:14.389Z,10.97
2023-01-03T23:35:48.785Z,11.20
2023-01-03T23:38:19.340Z,10.20
2023-01-03T23:40:51.619Z,11.10
2023-01-03T23:43:20.627Z,10.47
2023-01-03T23:45:50.381Z,10.50
2023-01-03T23:48:20.035Z,9.47
2023-01-03T23:50:51.908Z,9.87
2023-01-03T23:53:20.547Z,9.97
2023-01-03T23:56:01.891Z,8.97
2023-01-03T23:58:32.279Z,9.90
